Time;durP1;ratioP1;P1;durP2;ratioP2;P2;SDS_P1;SDS_P2;PMS_P1;PMS_P2;Temp;Humidity;BMP_temperature;BMP_pressure;BME280_temperature;BME280_humidity;BME280_pressure;Samples;Min_cycle;Max_cycle;Signal;HPM_P1;HPM_P2
2021/12/03 00:01:03;;;;;;;1.90;1.80;;;1.80;1.00;;;;;;4971089;28;20197;-73
2021/12/03 00:03:29;;;;;;;1.63;1.52;;;1.80;1.00;;;;;;4976579;28;20172;-69
2021/12/03 00:05:56;;;;;;;1.60;1.50;;;1.80;1.00;;;;;;4990516;28;20223;-73
2021/12/03 00:08:24;;;;;;;1.70;1.60;;;1.80;1.00;;;;;;4985342;28;20189;-68
2021/12/03 00:10:55;;;;;;;1.65;1.55;;;1.80;1.00;;;;;;4970929;28;20696;-68
2021/12/03 00:13:21;;;;;;;1.52;1.42;;;1.80;1.00;;;;;;4973479;28;20193;-73
2021/12/03 00:15:47;;;;;;;1.60;1.50;;;1.80;1.00;;;;;;4990047;28;20269;-69
2021/12/03 00:18:13;;;;;;;1.50;1.40;;;1.80;1.00;;;;;;4987730;28;20243;-68
2021/12/03 00:20:39;;;;;;;3.73;1.50;;;1.80;1.00;;;;;;4971122;28;20178;-74
2021/12/03 00:23:06;;;;;;;1.90;1.80;;;1.70;1.00;;;;;;4972784;28;20170;-74
2021/12/03 00:25:33;;;;;;;6.30;1.85;;;1.70;1.00;;;;;;4993663;28;20189;-73
2021/12/03 00:27:59;;;;;;;1.60;1.50;;;1.70;1.00;;;;;;4991905;28;20184;-69
2021/12/03 00:30:25;;;;;;;2.00;1.70;;;1.80;1.00;;;;;;4993165;28;20204;-70
2021/12/03 00:32:51;;;;;;;1.35;1.25;;;1.80;1.00;;;;;;4976459;28;20178;-73
2021/12/03 00:35:18;;;;;;;1.50;1.40;;;1.80;1.00;;;;;;4974230;28;20201;-70
2021/12/03 00:37:45;;;;;;;1.60;1.50;;;1.80;1.00;;;;;;4987834;28;20180;-68
2021/12/03 00:40:15;;;;;;;1.50;1.40;;;1.80;1.00;;;;;;4993561;28;20181;-73
2021/12/03 00:42:42;;;;;;;1.80;1.70;;;1.80;1.00;;;;;;4978110;28;20181;-69
2021/12/03 00:45:10;;;;;;;1.52;1.42;;;1.80;1.00;;;;;;4973820;28;20188;-70
2021/12/03 00:47:36;;;;;;;1.48;1.38;;;1.80;1.00;;;;;;4985153;28;20173;-69
2021/12/03 00:50:04;;;;;;;3.92;1.42;;;1.80;1.00;;;;;;4992869;28;20197;-73
2021/12/03 00:52:29;;;;;;;3.30;2.08;;;1.90;1.00;;;;;;4978113;28;20169;-69
2021/12/03 00:54:55;;;;;;;2.90;2.07;;;1.80;1.00;;;;;;4973667;28;20184;-69
2021/12/03 00:57:20;;;;;;;2.03;1.93;;;1.80;1.00;;;;;;4986007;28;20264;-69
2021/12/03 00:59:46;;;;;;;1.40;1.30;;;1.80;1.00;;;;;;4993240;28;20204;-74
2021/12/03 01:02:12;;;;;;;5.27;1.53;;;1.80;1.00;;;;;;4990602;28;20173;-73
2021/12/03 01:04:38;;;;;;;3.10;1.77;;;1.80;1.00;;;;;;4992921;28;20169;-69
2021/12/03 01:07:04;;;;;;;1.63;1.50;;;1.80;1.00;;;;;;4979695;28;20208;-74
2021/12/03 01:09:31;;;;;;;1.50;1.40;;;1.80;1.00;;;;;;4973628;28;20596;-69
2021/12/03 01:11:57;;;;;;;2.05;1.95;;;1.80;1.00;;;;;;4984240;28;20444;-69
2021/12/03 01:14:23;;;;;;;2.47;1.42;;;1.80;1.00;;;;;;4992520;28;20173;-70
2021/12/03 01:16:49;;;;;;;1.60;1.50;;;1.80;1.00;;;;;;4981860;28;20200;-72
2021/12/03 01:19:15;;;;;;;1.50;1.40;;;1.70;1.00;;;;;;4973527;28;20166;-73
2021/12/03 01:21:40;;;;;;;4.67;1.93;;;1.70;1.00;;;;;;4980959;28;20203;-70
2021/12/03 01:24:06;;;;;;;2.43;1.70;;;1.80;1.00;;;;;;4991150;28;20404;-74
2021/12/03 01:26:34;;;;;;;1.70;1.60;;;1.80;1.00;;;;;;4986324;28;20206;-73
2021/12/03 01:29:00;;;;;;;1.30;1.20;;;1.70;1.00;;;;;;4973304;28;20626;-73
2021/12/03 01:31:25;;;;;;;1.73;1.63;;;1.70;1.00;;;;;;4977837;28;20184;-70
2021/12/03 01:33:51;;;;;;;1.40;1.30;;;1.70;1.00;;;;;;4991747;28;20173;-73
2021/12/03 01:36:17;;;;;;;1.87;1.77;;;1.60;1.00;;;;;;4989171;28;20220;-68
2021/12/03 01:38:43;;;;;;;8.00;1.77;;;1.60;1.00;;;;;;4974291;28;20261;-69
2021/12/03 01:41:10;;;;;;;2.33;1.73;;;1.60;1.00;;;;;;4974527;28;20413;-73
2021/12/03 01:43:37;;;;;;;3.28;1.77;;;1.70;1.00;;;;;;4990646;28;20176;-69
2021/12/03 01:46:07;;;;;;;2.05;1.95;;;1.60;1.00;;;;;;4991778;28;20236;-73
2021/12/03 01:48:36;;;;;;;1.48;1.38;;;1.70;1.00;;;;;;4973219;28;20589;-69
2021/12/03 01:51:02;;;;;;;1.58;1.48;;;1.70;1.00;;;;;;4972737;28;20563;-74
2021/12/03 01:53:31;;;;;;;1.85;1.67;;;1.70;1.00;;;;;;4971978;28;20185;-73
2021/12/03 01:56:01;;;;;;;1.83;1.73;;;1.60;1.00;;;;;;4973939;28;20178;-69
2021/12/03 01:58:27;;;;;;;2.25;2.15;;;1.60;1.00;;;;;;4992380;28;20184;-69
2021/12/03 02:00:56;;;;;;;2.60;1.90;;;1.70;1.00;;;;;;4991827;28;20173;-72
2021/12/03 02:03:24;;;;;;;3.28;1.40;;;1.60;1.00;;;;;;4971076;28;20186;-69
2021/12/03 02:05:50;;;;;;;2.35;1.65;;;1.70;1.00;;;;;;4973930;28;20233;-73
2021/12/03 02:08:16;;;;;;;2.40;1.95;;;1.70;1.00;;;;;;4992133;28;20177;-69
2021/12/03 02:10:42;;;;;;;2.90;1.40;;;1.70;1.00;;;;;;4990582;28;20212;-73
2021/12/03 02:13:11;;;;;;;3.53;1.67;;;1.70;1.00;;;;;;4971855;28;20232;-69
2021/12/03 02:15:37;;;;;;;1.65;1.55;;;1.70;1.00;;;;;;4972548;28;20479;-69
2021/12/03 02:18:03;;;;;;;2.20;1.23;;;1.70;1.00;;;;;;4972662;28;20174;-72
2021/12/03 02:20:29;;;;;;;1.92;1.70;;;1.60;1.00;;;;;;4974485;28;20253;-68
2021/12/03 02:22:55;;;;;;;1.70;1.60;;;1.70;1.00;;;;;;4989920;28;20264;-69
2021/12/03 02:25:23;;;;;;;2.00;1.60;;;1.60;1.00;;;;;;4990395;28;20205;-74
2021/12/03 02:27:54;;;;;;;1.70;1.60;;;1.60;1.00;;;;;;4991815;28;20660;-70
2021/12/03 02:30:21;;;;;;;5.72;1.73;;;1.60;1.00;;;;;;4988288;28;20293;-74
2021/12/03 02:32:49;;;;;;;1.40;1.30;;;1.60;1.00;;;;;;4971564;28;20261;-73
2021/12/03 02:35:20;;;;;;;3.67;1.95;;;1.60;1.00;;;;;;4973453;28;20264;-74
2021/12/03 02:37:46;;;;;;;1.92;1.83;;;1.60;1.00;;;;;;4972286;28;20173;-73
2021/12/03 02:40:14;;;;;;;4.38;2.30;;;1.60;1.00;;;;;;4972334;28;20165;-69
2021/12/03 02:42:41;;;;;;;1.70;1.60;;;1.60;1.00;;;;;;4990940;28;20211;-74
2021/12/03 02:45:08;;;;;;;3.00;2.10;;;1.60;1.00;;;;;;4990548;28;20177;-74
2021/12/03 02:47:35;;;;;;;1.60;1.50;;;1.70;1.00;;;;;;4972023;28;20643;-69
2021/12/03 02:50:01;;;;;;;1.70;1.60;;;1.70;1.00;;;;;;4972020;28;20237;-71
2021/12/03 02:52:26;;;;;;;2.27;1.90;;;1.70;1.00;;;;;;4989179;28;20200;-69
2021/12/03 02:54:52;;;;;;;1.40;1.30;;;1.70;1.00;;;;;;4991416;28;20248;-73
2021/12/03 02:57:18;;;;;;;1.60;1.50;;;1.70;1.00;;;;;;4974808;28;20252;-74
2021/12/03 02:59:43;;;;;;;2.10;2.00;;;1.70;1.00;;;;;;4970987;28;20177;-74
2021/12/03 03:02:09;;;;;;;1.80;1.70;;;1.70;1.00;;;;;;4985096;28;20222;-69
2021/12/03 03:04:35;;;;;;;1.73;1.63;;;1.80;1.00;;;;;;4990429;28;20501;-74
2021/12/03 03:07:01;;;;;;;1.87;1.30;;;1.80;1.00;;;;;;4977814;28;20472;-74
2021/12/03 03:09:27;;;;;;;3.40;1.73;;;1.90;1.00;;;;;;4971890;28;20193;-70
2021/12/03 03:11:53;;;;;;;1.50;1.40;;;1.90;1.00;;;;;;4982898;28;20522;-74
2021/12/03 03:14:18;;;;;;;3.60;2.50;;;1.90;1.00;;;;;;4990504;28;20653;-69
2021/12/03 03:16:44;;;;;;;2.30;1.73;;;2.00;1.00;;;;;;4980985;28;20201;-73
2021/12/03 03:19:15;;;;;;;1.60;1.50;;;2.00;1.00;;;;;;4970936;28;20298;-73
2021/12/03 03:21:42;;;;;;;1.50;1.40;;;2.10;1.00;;;;;;4983625;28;20657;-74
2021/12/03 03:24:08;;;;;;;7.72;1.20;;;2.10;1.00;;;;;;4990215;28;21006;-74
2021/12/03 03:26:40;;;;;;;18.57;2.00;;;2.10;1.00;;;;;;4979681;28;20190;-74
2021/12/03 03:29:08;;;;;;;1.48;1.38;;;2.10;1.00;;;;;;4971477;28;20405;-71
2021/12/03 03:31:35;;;;;;;1.42;1.33;;;2.20;1.00;;;;;;4981834;28;20655;-71
2021/12/03 03:34:03;;;;;;;4.40;1.73;;;2.10;1.00;;;;;;4990124;28;20264;-74
2021/12/03 03:36:38;;;;;;;1.45;1.35;;;2.00;1.00;;;;;;4977520;28;20198;-71
2021/12/03 03:39:07;;;;;;;1.60;1.50;;;2.00;1.00;;;;;;4970812;28;20223;-70
2021/12/03 03:41:34;;;;;;;1.80;1.70;;;2.00;1.00;;;;;;4984183;28;20196;-70
2021/12/03 03:44:00;;;;;;;1.20;1.10;;;1.90;1.00;;;;;;4989986;28;20188;-74
2021/12/03 03:46:26;;;;;;;1.55;1.45;;;1.90;1.00;;;;;;4982358;28;20204;-71
2021/12/03 03:48:52;;;;;;;1.40;1.30;;;1.90;1.00;;;;;;4986487;28;20521;-69
2021/12/03 03:51:19;;;;;;;1.70;1.60;;;1.90;1.00;;;;;;4974237;28;20506;-73
2021/12/03 03:53:45;;;;;;;1.50;1.40;;;1.90;1.00;;;;;;4979029;28;20555;-70
2021/12/03 03:56:11;;;;;;;1.60;1.50;;;1.90;1.00;;;;;;4989596;28;20216;-70
2021/12/03 03:58:37;;;;;;;1.58;1.48;;;1.90;1.00;;;;;;4986120;28;20661;-73
2021/12/03 04:01:05;;;;;;;1.50;1.40;;;1.80;1.00;;;;;;4974712;28;20181;-73
2021/12/03 04:03:31;;;;;;;1.50;1.40;;;1.80;1.00;;;;;;4979539;28;20177;-70
2021/12/03 04:05:58;;;;;;;3.13;1.85;;;1.80;1.00;;;;;;4994133;28;20189;-70
2021/12/03 04:08:24;;;;;;;1.60;1.50;;;1.80;1.00;;;;;;4989097;28;20189;-71
2021/12/03 04:10:50;;;;;;;1.40;1.30;;;1.80;1.00;;;;;;4974382;28;20201;-74
2021/12/03 04:13:16;;;;;;;3.55;1.38;;;1.80;1.00;;;;;;4975595;28;20462;-69
2021/12/03 04:15:42;;;;;;;1.37;1.27;;;1.70;1.00;;;;;;4993781;28;20217;-70
2021/12/03 04:18:09;;;;;;;1.70;1.60;;;1.70;1.00;;;;;;4992278;28;20191;-74
2021/12/03 04:20:35;;;;;;;4.82;1.80;;;1.80;1.00;;;;;;4974381;28;20535;-73
2021/12/03 04:23:02;;;;;;;1.67;1.58;;;1.80;1.00;;;;;;4973488;28;20631;-73
2021/12/03 04:25:28;;;;;;;2.05;1.50;;;1.80;1.00;;;;;;4993448;28;20658;-70
2021/12/03 04:27:54;;;;;;;2.00;1.60;;;1.80;1.00;;;;;;4993626;28;20173;-70
2021/12/03 04:30:23;;;;;;;5.33;1.60;;;1.80;1.00;;;;;;4974975;28;20224;-70
2021/12/03 04:32:50;;;;;;;4.07;1.70;;;1.80;1.00;;;;;;4973267;28;20177;-73
2021/12/03 04:35:16;;;;;;;2.30;2.10;;;1.90;1.00;;;;;;4990834;28;20454;-73
2021/12/03 04:37:42;;;;;;;1.30;1.20;;;1.80;1.00;;;;;;4993595;28;20741;-74
2021/12/03 04:40:10;;;;;;;2.47;1.70;;;1.90;1.00;;;;;;4974348;28;20434;-73
2021/12/03 04:42:36;;;;;;;2.07;1.97;;;1.90;1.00;;;;;;4991201;28;20181;-70
2021/12/03 04:45:04;;;;;;;2.27;1.50;;;1.90;1.00;;;;;;4993221;28;20432;-73
2021/12/03 04:47:30;;;;;;;1.83;1.30;;;1.90;1.00;;;;;;4975501;28;20786;-71
2021/12/03 04:49:56;;;;;;;4.50;1.50;;;1.90;1.00;;;;;;4974072;28;20269;-74
2021/12/03 04:52:21;;;;;;;1.50;1.40;;;1.90;1.00;;;;;;4987934;28;20256;-70
2021/12/03 04:54:47;;;;;;;1.40;1.30;;;2.00;1.00;;;;;;4992842;28;20238;-70
2021/12/03 04:57:13;;;;;;;8.80;1.57;;;2.00;1.00;;;;;;4979520;28;20239;-74
2021/12/03 04:59:38;;;;;;;2.10;1.90;;;1.90;1.00;;;;;;4973830;28;20189;-69
2021/12/03 05:02:04;;;;;;;1.30;1.20;;;2.00;1.00;;;;;;4984258;28;20568;-71
2021/12/03 05:04:36;;;;;;;3.60;1.83;;;2.00;1.00;;;;;;4992437;28;20173;-71
2021/12/03 05:09:34;;;;;;;1.90;1.80;;;2.00;1.00;;;;;;4973096;28;20284;-70
2021/12/03 05:12:01;;;;;;;1.60;1.50;;;2.00;1.00;;;;;;4982873;28;20235;-72
2021/12/03 05:14:27;;;;;;;1.80;1.70;;;2.00;1.00;;;;;;4993033;28;20165;-70
2021/12/03 05:16:52;;;;;;;4.05;2.00;;;2.00;1.00;;;;;;4983978;28;20445;-71
2021/12/03 05:19:18;;;;;;;1.70;1.60;;;2.00;1.00;;;;;;4973577;28;20170;-71
2021/12/03 05:21:44;;;;;;;1.50;1.40;;;2.10;1.00;;;;;;4980023;28;20177;-72
2021/12/03 05:24:11;;;;;;;2.10;1.80;;;2.10;1.00;;;;;;4991407;28;20169;-71
2021/12/03 05:26:38;;;;;;;2.20;2.00;;;2.10;1.00;;;;;;4987135;28;20186;-71
2021/12/03 05:29:07;;;;;;;1.73;1.63;;;2.10;1.00;;;;;;4973207;28;20540;-71
2021/12/03 05:31:33;;;;;;;2.07;1.77;;;2.20;1.00;;;;;;4976144;28;20785;-72
2021/12/03 05:33:59;;;;;;;7.90;1.70;;;2.10;1.00;;;;;;4991904;28;20487;-73
2021/12/03 05:36:25;;;;;;;2.28;2.17;;;2.10;1.00;;;;;;4988296;28;20440;-71
2021/12/03 05:38:51;;;;;;;2.47;1.95;;;2.10;1.00;;;;;;4973189;28;20257;-71
2021/12/03 05:41:17;;;;;;;1.80;1.70;;;2.20;1.00;;;;;;4973106;28;20177;-72
2021/12/03 05:43:43;;;;;;;3.87;2.23;;;2.20;1.00;;;;;;4991491;28;20408;-71
2021/12/03 05:46:09;;;;;;;1.50;1.27;;;2.20;1.00;;;;;;4992530;28;20200;-73
2021/12/03 05:48:34;;;;;;;13.70;1.87;;;2.10;1.00;;;;;;4973373;28;20790;-73
2021/12/03 05:51:00;;;;;;;4.20;2.03;;;2.10;1.00;;;;;;4973816;28;20202;-71
2021/12/03 05:53:26;;;;;;;2.10;1.87;;;2.20;1.00;;;;;;4972032;28;20179;-73
2021/12/03 05:55:52;;;;;;;2.70;1.50;;;2.20;1.00;;;;;;4985507;28;20258;-74
2021/12/03 05:58:18;;;;;;;2.50;1.60;;;2.20;1.00;;;;;;4992352;28;20620;-74
2021/12/03 06:00:44;;;;;;;1.50;1.40;;;2.30;1.00;;;;;;4978778;28;20785;-72
2021/12/03 06:03:10;;;;;;;3.58;2.00;;;2.20;1.00;;;;;;4971996;28;20416;-72
2021/12/03 06:05:36;;;;;;;1.53;1.43;;;2.30;1.00;;;;;;4982721;28;20197;-72
2021/12/03 06:08:03;;;;;;;2.20;2.08;;;2.30;1.00;;;;;;4992293;28;20405;-71
2021/12/03 06:10:29;;;;;;;2.45;2.35;;;2.30;1.00;;;;;;4981985;28;20201;-74
2021/12/03 06:12:55;;;;;;;1.83;1.73;;;2.20;1.00;;;;;;4971892;28;20304;-72
2021/12/03 06:15:22;;;;;;;1.40;1.30;;;2.20;1.00;;;;;;4979697;28;20444;-72
2021/12/03 06:17:48;;;;;;;1.73;1.63;;;2.20;1.00;;;;;;4991963;28;20507;-73
2021/12/03 06:20:15;;;;;;;1.50;1.40;;;2.30;1.00;;;;;;4984032;28;20657;-73
2021/12/03 06:22:40;;;;;;;1.75;1.65;;;2.20;1.00;;;;;;4971828;28;20258;-73
2021/12/03 06:25:08;;;;;;;5.87;2.00;;;2.30;1.00;;;;;;4976432;28;20204;-73
2021/12/03 06:27:34;;;;;;;3.20;2.03;;;2.30;1.00;;;;;;4991832;28;20970;-73
2021/12/03 06:30:00;;;;;;;2.17;1.83;;;2.30;1.00;;;;;;4988839;28;20202;-75
2021/12/03 06:32:26;;;;;;;2.30;2.20;;;2.20;1.00;;;;;;4971580;28;20534;-73
2021/12/03 06:34:52;;;;;;;2.80;2.70;;;2.20;1.00;;;;;;4973295;28;20803;-71
2021/12/03 06:37:18;;;;;;;5.73;2.00;;;2.30;1.00;;;;;;4991912;28;20447;-72
2021/12/03 06:39:44;;;;;;;1.97;1.87;;;2.40;1.00;;;;;;4990823;28;20414;-73
2021/12/03 06:42:09;;;;;;;1.80;1.60;;;2.40;1.00;;;;;;4970455;28;20541;-73
2021/12/03 06:44:35;;;;;;;2.17;2.00;;;2.50;1.00;;;;;;4972344;28;20227;-71
2021/12/03 06:47:02;;;;;;;1.70;1.60;;;2.50;1.00;;;;;;4989098;28;20204;-73
2021/12/03 06:49:29;;;;;;;2.90;2.70;;;2.50;1.00;;;;;;4991564;28;20706;-74
2021/12/03 06:52:01;;;;;;;4.80;2.72;;;2.40;1.00;;;;;;4974975;28;20421;-78
2021/12/03 06:54:30;;;;;;;2.75;2.55;;;2.30;1.00;;;;;;4972037;28;20166;-74
2021/12/03 06:56:57;;;;;;;2.50;2.33;;;2.30;1.00;;;;;;4971498;28;20629;-74
2021/12/03 06:59:24;;;;;;;4.13;2.57;;;2.30;1.00;;;;;;4971509;28;20488;-72
2021/12/03 07:01:51;;;;;;;2.57;2.37;;;2.30;1.00;;;;;;4988358;28;20424;-72
2021/12/03 07:04:18;;;;;;;5.73;2.40;;;2.40;1.00;;;;;;4989502;28;20812;-74
2021/12/03 07:06:43;;;;;;;2.70;1.80;;;2.40;1.00;;;;;;4989706;28;20439;-73
2021/12/03 07:09:09;;;;;;;2.03;1.93;;;2.30;1.00;;;;;;4991258;28;20896;-75
2021/12/03 07:11:35;;;;;;;2.05;1.95;;;2.40;1.00;;;;;;4975955;28;20177;-73
2021/12/03 07:14:01;;;;;;;7.83;2.40;;;2.30;1.00;;;;;;4970699;28;20622;-74
2021/12/03 07:16:27;;;;;;;2.00;1.90;;;2.20;1.00;;;;;;4984794;28;20197;-75
2021/12/03 07:18:53;;;;;;;2.60;2.50;;;2.20;1.00;;;;;;4990464;28;20180;-76
2021/12/03 07:21:19;;;;;;;3.47;2.50;;;2.10;1.00;;;;;;4975692;28;20475;-75
2021/12/03 07:23:45;;;;;;;2.83;2.15;;;2.10;1.00;;;;;;4970869;28;20690;-75
2021/12/03 07:26:10;;;;;;;3.97;1.63;;;2.10;1.00;;;;;;4984995;28;20300;-76
2021/12/03 07:28:36;;;;;;;1.80;1.70;;;2.20;1.00;;;;;;4989670;28;20816;-76
2021/12/03 07:31:02;;;;;;;1.50;1.40;;;2.30;1.00;;;;;;4989213;28;20871;-75
2021/12/03 07:33:30;;;;;;;2.30;2.20;;;2.30;1.00;;;;;;4990174;28;20168;-76
2021/12/03 07:35:56;;;;;;;10.53;2.30;;;2.30;1.00;;;;;;4971609;28;20196;-75
2021/12/03 07:38:22;;;;;;;1.73;1.63;;;2.30;1.00;;;;;;4970557;28;20746;-75
2021/12/03 07:40:49;;;;;;;2.20;2.10;;;2.30;1.00;;;;;;4988881;28;20175;-77
2021/12/03 07:43:17;;;;;;;2.53;2.23;;;2.30;1.00;;;;;;4989965;28;20177;-75
2021/12/03 07:45:44;;;;;;;2.60;2.50;;;2.40;1.00;;;;;;4973912;28;20839;-74
2021/12/03 07:48:09;;;;;;;2.55;2.35;;;2.40;1.00;;;;;;4972334;28;20405;-74
2021/12/03 07:50:37;;;;;;;6.53;2.73;;;2.40;1.00;;;;;;4982116;28;20239;-75
2021/12/03 07:53:03;;;;;;;1.93;1.83;;;2.40;1.00;;;;;;4970356;28;20212;-75
2021/12/03 07:55:29;;;;;;;2.23;2.13;;;2.40;1.00;;;;;;4971203;28;20486;-74
2021/12/03 07:57:55;;;;;;;8.97;2.57;;;2.40;1.00;;;;;;4970408;28;20440;-74
2021/12/03 08:00:21;;;;;;;6.00;2.10;;;2.50;1.00;;;;;;4971135;28;21014;-74
2021/12/03 08:02:47;;;;;;;3.83;3.17;;;2.50;1.00;;;;;;4970296;28;20432;-74
2021/12/03 08:05:13;;;;;;;2.57;2.37;;;2.50;1.00;;;;;;4971133;28;20486;-74
2021/12/03 08:07:39;;;;;;;2.50;2.30;;;2.50;1.00;;;;;;4970237;28;20486;-73
2021/12/03 08:10:06;;;;;;;2.65;2.55;;;2.40;1.00;;;;;;4971070;28;20181;-75
2021/12/03 08:12:32;;;;;;;2.70;2.50;;;2.40;1.00;;;;;;4970151;28;20251;-72
2021/12/03 08:14:58;;;;;;;2.00;1.90;;;2.40;1.00;;;;;;4971014;28;20506;-72
2021/12/03 08:17:24;;;;;;;3.30;3.00;;;2.50;1.00;;;;;;4969043;28;20181;-73
2021/12/03 08:19:49;;;;;;;5.27;2.50;;;2.40;1.00;;;;;;4971042;28;20627;-72
2021/12/03 08:22:15;;;;;;;3.73;3.43;;;2.40;1.00;;;;;;4970013;28;20409;-73
2021/12/03 08:24:41;;;;;;;3.63;3.33;;;2.40;1.00;;;;;;4971030;28;20678;-71
2021/12/03 08:27:07;;;;;;;2.67;2.57;;;2.40;1.00;;;;;;4970852;28;20429;-71
2021/12/03 08:29:33;;;;;;;2.70;2.23;;;2.40;1.00;;;;;;4970765;28;20263;-73
2021/12/03 08:31:59;;;;;;;2.80;2.60;;;2.40;1.00;;;;;;4970539;28;20193;-75
2021/12/03 08:34:24;;;;;;;3.45;3.25;;;2.30;1.00;;;;;;4970641;28;20401;-72
2021/12/03 08:36:50;;;;;;;5.90;3.37;;;2.20;1.00;;;;;;4970256;28;20208;-72
2021/12/03 08:39:16;;;;;;;2.17;2.07;;;2.20;1.00;;;;;;4970260;28;20170;-71
2021/12/03 08:41:42;;;;;;;3.20;3.00;;;2.20;1.00;;;;;;4970579;28;20173;-70
2021/12/03 08:44:07;;;;;;;3.40;3.20;;;2.20;1.00;;;;;;4970717;28;20520;-72
2021/12/03 08:46:35;;;;;;;3.20;2.90;;;2.20;1.00;;;;;;4973878;28;20186;-70
2021/12/03 08:49:16;;;;;;;3.65;3.45;;;2.10;1.00;;;;;;4973906;28;20158;-70
2021/12/03 08:56:53;;;;;;;3.70;3.40;;;2.10;1.00;;;;;;4973600;28;20593;-72
2021/12/03 08:59:19;;;;;;;3.90;3.60;;;2.00;1.00;;;;;;4973329;28;20174;-71
2021/12/03 09:01:45;;;;;;;5.67;4.50;;;2.10;1.00;;;;;;4973763;28;20563;-70
2021/12/03 09:04:14;;;;;;;3.73;3.53;;;2.20;1.00;;;;;;4972895;28;20400;-70
2021/12/03 09:06:39;;;;;;;5.20;3.65;;;2.20;1.00;;;;;;4973548;28;20417;-70
2021/12/03 09:09:08;;;;;;;6.00;3.07;;;2.20;1.00;;;;;;4973626;28;20287;-70
2021/12/03 09:11:35;;;;;;;4.80;4.40;;;2.20;1.00;;;;;;4973490;28;20276;-70
2021/12/03 09:14:06;;;;;;;3.60;3.40;;;2.20;1.00;;;;;;4972766;28;20173;-70
2021/12/03 09:16:32;;;;;;;5.30;5.00;;;2.30;1.00;;;;;;4973425;28;20193;-70
2021/12/03 09:18:59;;;;;;;4.50;4.10;;;2.30;1.00;;;;;;4972714;28;20218;-70
2021/12/03 09:21:27;;;;;;;5.95;5.18;;;2.30;1.00;;;;;;4973286;28;20420;-71
2021/12/03 09:24:07;;;;;;;5.45;5.05;;;2.30;1.00;;;;;;4972696;28;20181;-69
2021/12/03 09:26:36;;;;;;;5.03;4.72;;;2.40;1.00;;;;;;4973439;28;20282;-70
2021/12/03 09:29:11;;;;;;;6.55;4.32;;;2.50;1.00;;;;;;4973200;28;20166;-68
2021/12/03 09:31:41;;;;;;;5.70;4.70;;;2.50;1.00;;;;;;4973230;28;20262;-70
2021/12/03 09:34:09;;;;;;;4.25;3.95;;;2.40;1.00;;;;;;4972389;28;20166;-70
2021/12/03 09:36:39;;;;;;;5.32;4.80;;;2.40;1.00;;;;;;4973270;28;20182;-70
2021/12/03 09:39:06;;;;;;;5.57;4.82;;;2.40;1.00;;;;;;4982496;28;20209;-70
2021/12/03 09:41:32;;;;;;;3.70;3.50;;;2.40;1.00;;;;;;4992589;28;20165;-71
2021/12/03 09:43:57;;;;;;;4.50;4.20;;;2.40;1.00;;;;;;4980948;28;20177;-70
2021/12/03 09:46:27;;;;;;;5.27;4.83;;;2.40;1.00;;;;;;4972929;28;20482;-71
2021/12/03 09:51:52;;;;;;;5.22;4.88;;;2.40;1.00;;;;;;4980956;28;20564;-72
2021/12/03 09:54:32;;;;;;;4.78;4.38;;;2.40;1.00;;;;;;4976085;28;20173;-70
2021/12/03 09:57:07;;;;;;;4.28;3.92;;;2.40;1.00;;;;;;4992114;28;20196;-69
2021/12/03 10:10:14;;;;;;;5.97;3.50;;;2.80;1.00;;;;;;4977902;28;20246;-71
2021/12/03 10:15:15;;;;;;;5.90;5.30;;;2.80;1.00;;;;;;4983836;28;20272;-71
2021/12/03 10:20:24;;;;;;;4.67;4.23;;;2.70;1.00;;;;;;4972771;28;20264;-72
2021/12/03 10:29:33;;;;;;;14.73;5.05;;;2.90;1.00;;;;;;4992639;28;20207;-71
2021/12/03 10:54:46;;;;;;;6.82;5.32;;;2.70;1.00;;;;;;4974657;28;20424;-70
2021/12/03 11:11:10;;;;;;;10.02;4.55;;;2.60;1.00;;;;;;4991663;28;20576;-72
2021/12/03 11:27:47;;;;;;;8.10;7.30;;;2.60;1.00;;;;;;4991583;28;20195;-70
2021/12/03 11:54:28;;;;;;;8.23;7.37;;;2.80;1.00;;;;;;4990165;28;20183;-70
2021/12/03 12:34:08;;;;;;;11.75;10.57;;;2.70;1.00;;;;;;5052070;28;20174;-70
2021/12/03 12:36:37;;;;;;;17.88;7.38;;;2.80;1.00;;;;;;5096757;28;20189;-71
2021/12/03 13:11:35;;;;;;;17.60;11.73;;;2.80;1.00;;;;;;4973846;28;20452;-70
2021/12/03 13:24:41;;;;;;;18.27;10.90;;;2.90;1.00;;;;;;4973557;28;20508;-72
2021/12/03 14:41:43;;;;;;;39.65;11.88;;;3.40;1.00;;;;;;4978528;28;20185;-71
2021/12/03 14:44:21;;;;;;;23.33;11.87;;;3.40;1.00;;;;;;4978380;28;20221;-70
2021/12/03 14:47:30;;;;;;;15.10;8.17;;;3.30;1.00;;;;;;4985849;28;20495;-71
2021/12/03 14:55:41;;;;;;;16.80;12.02;;;2.90;1.00;;;;;;4972630;28;20197;-70
2021/12/03 14:58:13;;;;;;;18.63;9.73;;;2.70;1.00;;;;;;4978536;28;20268;-70
2021/12/03 15:03:19;;;;;;;17.08;10.90;;;2.40;1.00;;;;;;4984082;28;20339;-69
2021/12/03 15:08:31;;;;;;;17.40;7.93;;;2.20;1.00;;;;;;4971944;28;20539;-69
2021/12/03 15:32:38;;;;;;;8.85;6.88;;;1.80;1.00;;;;;;4949687;28;20530;-69
2021/12/03 15:35:12;;;;;;;8.27;7.32;;;1.70;1.00;;;;;;4957613;28;20181;-70
2021/12/03 15:56:39;;;;;;;12.93;8.02;;;1.60;1.00;;;;;;4978573;28;20571;-68
2021/12/03 16:04:37;;;;;;;6.43;5.28;;;1.60;1.00;;;;;;4991074;28;20172;-70
2021/12/03 16:14:54;;;;;;;12.93;8.02;;;1.60;1.00;;;;;;4981088;28;20432;-71
2021/12/03 16:17:40;;;;;;;8.75;6.38;;;1.60;1.00;;;;;;4977440;28;20172;-70
2021/12/03 16:20:31;;;;;;;9.05;5.00;;;1.60;1.00;;;;;;4976999;28;20238;-70
2021/12/03 16:26:15;;;;;;;9.63;6.50;;;1.60;1.00;;;;;;4996776;28;20185;-70
2021/12/03 16:44:54;;;;;;;7.15;5.85;;;1.80;14.50;;;;;;4977145;28;20772;-71
2021/12/03 16:52:50;;;;;;;6.55;5.05;;;1.90;22.00;;;;;;4984733;28;20260;-70
2021/12/03 16:55:17;;;;;;;6.68;4.82;;;1.90;22.50;;;;;;4991059;28;20189;-70
2021/12/03 16:57:44;;;;;;;4.55;4.15;;;1.90;23.70;;;;;;4995535;28;20260;-70
2021/12/03 17:00:37;;;;;;;4.32;3.92;;;2.00;26.10;;;;;;4986553;28;20228;-69
2021/12/03 17:05:52;;;;;;;5.43;3.92;;;2.00;26.10;;;;;;4976694;28;20205;-73
2021/12/03 17:54:21;;;;;;;5.18;4.68;;;2.50;39.60;;;;;;4981447;28;20507;-70
2021/12/03 17:56:48;;;;;;;5.28;4.78;;;2.50;39.60;;;;;;4978037;28;20185;-71
2021/12/03 17:59:20;;;;;;;5.78;5.22;;;2.50;40.10;;;;;;4979634;28;20180;-70
2021/12/03 18:04:24;;;;;;;6.07;5.63;;;2.60;41.90;;;;;;4986434;28;20659;-73
2021/12/03 18:07:08;;;;;;;8.43;5.38;;;2.70;43.10;;;;;;4985974;28;20203;-69
2021/12/03 18:15:21;;;;;;;5.90;4.05;;;2.60;39.70;;;;;;4976969;28;20188;-70
2021/12/03 18:18:01;;;;;;;5.95;5.13;;;2.60;39.70;;;;;;5020856;28;20252;-69
2021/12/03 18:50:54;;;;;;;5.78;4.55;;;2.80;46.10;;;;;;4988699;28;20211;-71
2021/12/03 18:55:54;;;;;;;6.07;5.57;;;2.90;46.90;;;;;;4971679;28;20204;-70
2021/12/03 18:58:23;;;;;;;7.97;6.40;;;2.90;47.00;;;;;;4986214;28;20185;-72
2021/12/03 19:00:51;;;;;;;9.77;5.10;;;2.90;47.00;;;;;;4991556;28;20185;-72
2021/12/03 19:06:29;;;;;;;5.10;4.60;;;2.90;48.30;;;;;;4988581;28;20200;-71
2021/12/03 19:08:54;;;;;;;6.47;5.97;;;3.00;49.70;;;;;;4988643;28;20650;-73
2021/12/03 19:11:28;;;;;;;4.85;4.55;;;3.00;50.30;;;;;;4973604;28;20219;-71
2021/12/03 19:13:54;;;;;;;9.65;4.57;;;3.10;52.50;;;;;;4981801;28;20173;-71
2021/12/03 19:16:25;;;;;;;14.07;5.00;;;3.10;53.80;;;;;;4971054;28;20250;-68
2021/12/03 19:18:53;;;;;;;6.40;5.80;;;3.10;53.90;;;;;;4972085;28;20170;-71
2021/12/03 19:21:25;;;;;;;5.83;5.43;;;3.20;54.00;;;;;;4972180;28;20436;-71
2021/12/03 19:23:57;;;;;;;5.77;5.20;;;3.20;54.20;;;;;;4971231;28;20812;-70
2021/12/03 19:26:28;;;;;;;7.93;6.77;;;3.30;56.00;;;;;;4972025;28;20433;-70
2021/12/03 19:28:55;;;;;;;10.35;7.05;;;3.30;57.30;;;;;;4973501;28;20429;-73
2021/12/03 19:31:23;;;;;;;5.97;5.23;;;3.30;57.90;;;;;;4972504;28;20269;-70
2021/12/03 19:33:49;;;;;;;6.75;5.45;;;3.40;60.30;;;;;;5012648;28;20892;-71
2021/12/03 19:36:21;;;;;;;5.00;4.60;;;3.40;60.60;;;;;;4977888;28;20202;-70
2021/12/03 19:38:52;;;;;;;7.30;6.53;;;3.50;61.50;;;;;;4988911;28;20226;-70
2021/12/03 19:41:36;;;;;;;6.10;5.60;;;3.50;62.50;;;;;;4989574;28;20424;-72
2021/12/03 19:44:06;;;;;;;7.40;5.80;;;3.60;63.50;;;;;;4972908;28;20501;-70
2021/12/03 19:46:37;;;;;;;5.17;4.87;;;3.70;64.00;;;;;;4990563;28;20424;-73
2021/12/03 19:49:18;;;;;;;6.27;5.67;;;3.70;66.10;;;;;;4987830;28;20424;-71
2021/12/03 19:51:50;;;;;;;8.30;6.03;;;3.70;65.00;;;;;;4985989;28;20459;-70
2021/12/03 19:54:18;;;;;;;8.27;6.90;;;3.70;65.80;;;;;;4979836;28;20474;-69
2021/12/03 19:56:44;;;;;;;4.70;4.20;;;3.90;65.90;;;;;;4972793;28;20440;-69
2021/12/03 19:59:11;;;;;;;7.00;6.30;;;3.90;65.90;;;;;;4989010;28;20420;-70
2021/12/03 20:01:37;;;;;;;9.03;6.10;;;3.80;65.80;;;;;;4989283;28;20481;-71
2021/12/03 20:04:05;;;;;;;8.90;7.40;;;3.90;65.90;;;;;;4987281;28;20424;-70
2021/12/03 20:06:31;;;;;;;6.07;5.50;;;3.90;65.90;;;;;;4990056;28;20762;-70
2021/12/03 20:08:58;;;;;;;7.20;6.53;;;4.00;66.80;;;;;;4975153;28;20427;-69
2021/12/03 20:11:37;;;;;;;6.10;5.50;;;3.90;65.90;;;;;;4990569;28;20196;-68
2021/12/03 20:14:03;;;;;;;6.80;5.67;;;4.00;66.10;;;;;;4986147;28;20428;-70
2021/12/03 20:16:33;;;;;;;7.40;6.57;;;4.00;66.70;;;;;;4971461;28;20432;-69
2021/12/03 20:21:47;;;;;;;8.13;4.97;;;4.00;67.00;;;;;;4971458;28;20405;-71
2021/12/03 20:26:56;;;;;;;5.77;5.27;;;4.10;66.10;;;;;;4990341;28;20443;-70
2021/12/03 20:29:35;;;;;;;5.87;5.27;;;4.10;66.50;;;;;;4990032;28;20424;-69
2021/12/03 20:37:30;;;;;;;6.50;5.90;;;4.10;66.10;;;;;;4975833;28;20959;-70
2021/12/03 20:40:00;;;;;;;7.60;6.40;;;4.10;66.30;;;;;;4992144;28;20500;-70
2021/12/03 20:42:31;;;;;;;7.23;5.37;;;4.10;67.00;;;;;;4977411;28;20425;-71
2021/12/03 20:47:37;;;;;;;6.77;6.03;;;4.10;68.10;;;;;;4975638;28;20417;-71